Time;durP1;ratioP1;P1;durP2;ratioP2;P2;SDS_P1;SDS_P2;PMS_P1;PMS_P2;Temp;Humidity;BMP_temperature;BMP_pressure;BME280_temperature;BME280_humidity;BME280_pressure;Samples;Min_cycle;Max_cycle;Signal;HPM_P1;HPM_P2
2022/03/05 00:01:05;;;;;;;7.30;3.50;;;;;;;-0.06;75.63;101632.00;107763;1280;60581;-74
2022/03/05 00:03:32;;;;;;;8.00;3.80;;;;;;;-0.03;75.70;101632.05;108074;1277;76137;-74
2022/03/05 00:05:58;;;;;;;8.00;4.30;;;;;;;-0.02;75.65;101631.42;108114;1277;71466;-74
2022/03/05 00:08:25;;;;;;;9.90;4.80;;;;;;;-0.01;75.62;101629.65;108105;1277;59781;-76
2022/03/05 00:10:54;;;;;;;7.70;4.60;;;;;;;-0.02;75.72;101631.59;107945;1277;61124;-77
2022/03/05 00:13:20;;;;;;;8.80;3.90;;;;;;;-0.04;76.07;101629.84;107959;1277;59209;-74
2022/03/05 00:15:47;;;;;;;8.80;3.80;;;;;;;-0.05;76.27;101633.66;107960;1278;59766;-77
2022/03/05 00:18:15;;;;;;;11.40;4.80;;;;;;;-0.06;76.58;101632.69;107959;1277;71725;-74
2022/03/05 00:20:42;;;;;;;8.40;4.30;;;;;;;-0.07;76.82;101633.64;107925;1277;72489;-74
2022/03/05 00:23:09;;;;;;;13.90;4.60;;;;;;;-0.08;76.93;101639.08;108123;1277;61380;-75
2022/03/05 00:25:36;;;;;;;7.10;3.60;;;;;;;-0.09;77.07;101643.98;108169;1277;59096;-75
2022/03/05 00:28:02;;;;;;;9.20;4.00;;;;;;;-0.10;77.23;101636.76;107941;1277;75928;-76
2022/03/05 00:30:29;;;;;;;9.80;4.80;;;;;;;-0.09;77.34;101630.63;107953;1278;71975;-74
2022/03/05 00:32:55;;;;;;;10.60;5.00;;;;;;;-0.08;77.37;101634.39;107924;1279;59104;-74
2022/03/05 00:35:22;;;;;;;8.30;3.70;;;;;;;-0.08;77.59;101631.93;107848;1279;59572;-74
2022/03/05 00:37:48;;;;;;;7.10;3.50;;;;;;;-0.06;77.61;101633.25;108117;1277;59308;-76
2022/03/05 00:40:15;;;;;;;7.70;3.20;;;;;;;-0.06;77.96;101634.81;107946;1277;59199;-75
2022/03/05 00:42:41;;;;;;;9.00;4.30;;;;;;;-0.06;78.25;101638.98;107983;1277;72282;-76
2022/03/05 00:45:08;;;;;;;3.80;2.30;;;;;;;-0.06;78.37;101645.38;107954;1277;59653;-76
2022/03/05 00:47:35;;;;;;;8.90;4.30;;;;;;;-0.05;79.16;101644.98;107925;1277;61355;-76
2022/03/05 00:50:04;;;;;;;10.50;4.70;;;;;;;-0.02;79.18;101642.41;108129;1277;60328;-76
2022/03/05 00:52:31;;;;;;;9.40;4.90;;;;;;;0.01;79.02;101644.00;108155;1277;75989;-75
2022/03/05 00:54:58;;;;;;;9.30;4.60;;;;;;;0.05;79.06;101643.25;107903;1279;72435;-75
2022/03/05 00:57:24;;;;;;;10.50;4.40;;;;;;;0.07;79.17;101643.67;108009;1277;60396;-76
2022/03/05 00:59:52;;;;;;;16.60;5.30;;;;;;;0.11;79.31;101646.21;108069;1278;62609;-76
2022/03/05 01:02:19;;;;;;;9.70;4.60;;;;;;;0.13;79.47;101648.58;108123;1277;59016;-74
2022/03/05 01:04:45;;;;;;;13.20;5.50;;;;;;;0.14;79.78;101647.31;108272;1277;74898;-76
2022/03/05 01:07:12;;;;;;;8.70;4.10;;;;;;;0.14;79.98;101646.08;108279;1277;59144;-76
2022/03/05 01:09:38;;;;;;;9.10;4.50;;;;;;;0.13;80.13;101644.22;108383;1276;59144;-75
2022/03/05 01:12:05;;;;;;;9.30;4.60;;;;;;;0.11;80.35;101644.30;108045;1277;61454;-76
2022/03/05 01:14:32;;;;;;;12.80;5.10;;;;;;;0.09;80.47;101647.05;108324;1276;60344;-76
2022/03/05 01:16:58;;;;;;;13.70;5.60;;;;;;;0.06;80.49;101639.91;108041;1279;59725;-76
2022/03/05 01:19:25;;;;;;;9.90;5.00;;;;;;;0.02;80.39;101637.34;108126;1277;59228;-76
2022/03/05 01:21:51;;;;;;;11.00;5.50;;;;;;;-0.03;80.39;101636.56;108233;1276;59065;-76
2022/03/05 01:24:18;;;;;;;12.00;5.40;;;;;;;-0.10;80.56;101639.52;108109;1277;59423;-76
2022/03/05 01:26:44;;;;;;;9.30;4.60;;;;;;;-0.16;80.78;101639.15;108300;1277;59033;-74
2022/03/05 01:29:11;;;;;;;12.00;5.70;;;;;;;-0.23;80.95;101643.86;108266;1277;59878;-74
2022/03/05 01:31:37;;;;;;;10.30;4.80;;;;;;;-0.28;81.18;101644.70;108324;1277;59003;-75
2022/03/05 01:34:04;;;;;;;12.10;4.60;;;;;;;-0.33;81.46;101643.20;108114;1277;59066;-76
2022/03/05 01:36:30;;;;;;;10.50;4.80;;;;;;;-0.38;81.53;101641.72;108322;1277;58983;-75
2022/03/05 01:38:56;;;;;;;11.80;6.10;;;;;;;-0.41;81.83;101641.00;108279;1277;58962;-76
2022/03/05 01:41:23;;;;;;;12.30;5.70;;;;;;;-0.44;81.96;101638.40;108331;1276;59287;-75
2022/03/05 01:43:51;;;;;;;12.80;5.30;;;;;;;-0.48;82.41;101637.87;108120;1277;59340;-75
2022/03/05 01:46:38;;;;;;;13.10;4.80;;;;;;;-0.50;82.83;101634.01;108338;1276;73838;-75
2022/03/05 01:49:11;;;;;;;11.50;5.60;;;;;;;-0.53;83.15;101632.59;108071;1277;62198;-75
2022/03/05 01:51:39;;;;;;;12.70;5.40;;;;;;;-0.56;83.33;101630.70;108301;1277;60512;-75
2022/03/05 01:54:07;;;;;;;15.00;5.30;;;;;;;-0.60;83.37;101629.31;108055;1277;76217;-76
2022/03/05 01:56:35;;;;;;;13.50;5.00;;;;;;;-0.63;83.59;101623.23;108266;1276;72379;-74
2022/03/05 01:59:01;;;;;;;13.50;4.90;;;;;;;-0.66;83.69;101623.52;108060;1277;74271;-75
2022/03/05 02:01:28;;;;;;;13.80;5.50;;;;;;;-0.69;83.71;101623.34;108164;1277;61395;-75
2022/03/05 02:03:56;;;;;;;11.00;5.50;;;;;;;-0.73;83.48;101624.79;108130;1277;61601;-75
2022/03/05 02:06:24;;;;;;;12.10;5.80;;;;;;;-0.78;83.41;101619.83;108071;1280;76171;-75
2022/03/05 02:08:50;;;;;;;12.40;4.90;;;;;;;-0.83;83.47;101624.57;108225;1277;71615;-76
2022/03/05 02:11:17;;;;;;;13.20;5.30;;;;;;;-0.88;83.55;101623.27;108335;1277;72967;-75
2022/03/05 02:13:44;;;;;;;14.70;5.70;;;;;;;-0.92;83.61;101620.91;108248;1277;62478;-76
2022/03/05 02:16:11;;;;;;;11.90;5.30;;;;;;;-0.98;83.83;101623.80;108259;1277;60226;-76
2022/03/05 02:18:38;;;;;;;14.90;6.50;;;;;;;-1.04;83.63;101622.02;107732;1280;74787;-75
2022/03/05 02:21:05;;;;;;;11.20;4.70;;;;;;;-1.10;83.65;101619.37;108328;1277;72752;-74
2022/03/05 02:23:31;;;;;;;12.30;4.90;;;;;;;-1.14;83.89;101623.58;108234;1277;59071;-76
2022/03/05 02:26:00;;;;;;;15.00;5.80;;;;;;;-1.19;83.95;101624.69;108279;1277;59094;-75
2022/03/05 02:28:28;;;;;;;9.80;4.50;;;;;;;-1.24;83.98;101620.92;108173;1277;60254;-75
2022/03/05 02:30:55;;;;;;;8.20;4.00;;;;;;;-1.27;84.51;101618.82;108206;1277;74915;-74
2022/03/05 02:33:22;;;;;;;13.30;5.60;;;;;;;-1.30;84.61;101612.71;108046;1279;71460;-74
2022/03/05 02:35:49;;;;;;;10.20;5.30;;;;;;;-1.28;84.93;101615.57;108070;1279;72929;-74
2022/03/05 02:38:17;;;;;;;12.00;4.30;;;;;;;-1.27;85.06;101619.13;108044;1279;61311;-75
2022/03/05 02:40:46;;;;;;;10.40;5.00;;;;;;;-1.25;85.10;101617.31;108026;1279;60275;-74
2022/03/05 02:43:13;;;;;;;12.00;5.70;;;;;;;-1.21;85.28;101615.05;108286;1277;74907;-74
2022/03/05 02:45:40;;;;;;;11.10;4.80;;;;;;;-1.17;85.22;101615.55;108132;1277;71432;-75
2022/03/05 02:48:12;;;;;;;14.50;5.10;;;;;;;-1.13;85.34;101613.98;108030;1277;72897;-76
2022/03/05 02:50:40;;;;;;;13.70;5.60;;;;;;;-1.09;85.23;101616.19;108120;1277;61477;-74
2022/03/05 02:53:06;;;;;;;10.70;4.70;;;;;;;-1.05;85.43;101614.79;108134;1277;61831;-74
2022/03/05 02:55:34;;;;;;;12.10;5.20;;;;;;;-1.01;85.30;101617.34;108289;1276;75987;-75
2022/03/05 02:58:02;;;;;;;21.30;4.80;;;;;;;-0.97;85.10;101611.25;108141;1277;71610;-75
2022/03/05 03:00:28;;;;;;;10.10;4.60;;;;;;;-0.94;85.17;101611.10;108068;1277;73332;-75
2022/03/05 03:02:55;;;;;;;13.40;4.60;;;;;;;-0.92;84.87;101611.50;108167;1277;62194;-75
2022/03/05 03:05:22;;;;;;;12.50;5.10;;;;;;;-0.92;84.69;101608.73;108280;1277;61598;-74
2022/03/05 03:07:49;;;;;;;8.70;4.70;;;;;;;-0.94;84.48;101605.52;108145;1277;75228;-75
2022/03/05 03:10:16;;;;;;;12.90;6.30;;;;;;;-0.97;84.23;101606.53;108307;1277;71364;-75
2022/03/05 03:12:43;;;;;;;12.00;5.00;;;;;;;-1.03;83.87;101600.25;108105;1277;73228;-76
2022/03/05 03:15:11;;;;;;;10.00;5.10;;;;;;;-1.09;83.54;101596.73;108262;1277;61509;-76
2022/03/05 03:17:46;;;;;;;15.80;5.60;;;;;;;-1.15;83.26;101598.79;108248;1276;60597;-74
2022/03/05 03:20:15;;;;;;;12.20;5.20;;;;;;;-1.24;83.09;101602.17;108139;1277;76441;-75
2022/03/05 03:22:42;;;;;;;10.50;5.80;;;;;;;-1.34;82.95;101599.18;108244;1277;70521;-74
2022/03/05 03:25:10;;;;;;;9.10;4.00;;;;;;;-1.44;82.67;101600.73;108217;1277;73106;-75
2022/03/05 03:27:37;;;;;;;11.70;4.80;;;;;;;-1.54;82.76;101600.38;108136;1277;61463;-74
2022/03/05 03:30:04;;;;;;;11.50;5.00;;;;;;;-1.64;82.80;101601.52;108032;1277;60504;-75
2022/03/05 03:32:31;;;;;;;13.90;6.70;;;;;;;-1.73;82.85;101604.72;108279;1277;76119;-74
2022/03/05 03:34:57;;;;;;;12.90;6.10;;;;;;;-1.81;82.89;101607.35;108246;1277;71385;-75
2022/03/05 03:37:28;;;;;;;13.10;5.60;;;;;;;-1.87;83.08;101610.07;108020;1279;58974;-76
2022/03/05 03:39:56;;;;;;;13.60;5.20;;;;;;;-1.94;82.97;101610.75;108058;1277;61157;-76
2022/03/05 03:42:23;;;;;;;12.20;5.20;;;;;;;-2.01;83.09;101613.51;108257;1277;61426;-74
2022/03/05 03:44:49;;;;;;;10.60;4.50;;;;;;;-2.08;83.20;101611.89;107923;1277;74752;-74
2022/03/05 03:47:18;;;;;;;11.20;5.10;;;;;;;-2.13;83.21;101614.73;108284;1277;71598;-76
2022/03/05 03:49:45;;;;;;;14.60;5.70;;;;;;;-2.17;83.20;101619.63;108189;1277;72962;-75
2022/03/05 03:52:13;;;;;;;11.60;5.60;;;;;;;-2.22;83.22;101621.24;108305;1276;61447;-75
2022/03/05 03:54:41;;;;;;;10.30;4.90;;;;;;;-2.28;83.33;101625.10;108229;1276;61358;-75
2022/03/05 03:57:09;;;;;;;13.50;5.40;;;;;;;-2.32;83.34;101625.16;108116;1277;74873;-75
2022/03/05 03:59:36;;;;;;;14.20;5.60;;;;;;;-2.36;83.41;101624.63;108206;1277;71417;-75
2022/03/05 04:02:03;;;;;;;14.00;5.70;;;;;;;-2.40;83.44;101623.92;108093;1277;59128;-76
2022/03/05 04:04:30;;;;;;;10.60;5.10;;;;;;;-2.42;83.64;101624.01;108243;1276;61471;-76
2022/03/05 04:09:42;;;;;;;10.20;5.00;;;;;;;-2.47;83.59;101628.72;108067;1279;74947;-75
2022/03/05 04:12:08;;;;;;;15.60;6.00;;;;;;;-2.50;83.51;101634.75;108260;1277;71326;-74
2022/03/05 04:14:38;;;;;;;8.20;3.60;;;;;;;-2.53;83.69;101632.97;108124;1277;74136;-74
2022/03/05 04:17:06;;;;;;;13.40;5.20;;;;;;;-2.54;83.51;101637.55;108093;1277;61595;-74
2022/03/05 04:19:33;;;;;;;10.30;4.50;;;;;;;-2.57;83.57;101635.27;108218;1277;61349;-74
2022/03/05 04:21:59;;;;;;;16.90;5.90;;;;;;;-2.59;83.59;101639.50;108279;1277;76159;-76
2022/03/05 04:24:26;;;;;;;13.40;6.70;;;;;;;-2.62;83.46;101638.41;108169;1277;59132;-74
2022/03/05 04:26:52;;;;;;;14.60;5.30;;;;;;;-2.66;83.37;101638.21;107996;1277;72926;-77
2022/03/05 04:29:19;;;;;;;8.90;4.60;;;;;;;-2.68;83.45;101642.30;108159;1277;59288;-77
2022/03/05 04:31:45;;;;;;;9.60;4.80;;;;;;;-2.70;83.24;101638.93;108225;1277;58970;-76
2022/03/05 04:34:12;;;;;;;9.60;4.80;;;;;;;-2.72;83.22;101640.77;108288;1277;59643;-74
2022/03/05 04:36:38;;;;;;;8.80;4.80;;;;;;;-2.75;83.23;101640.00;108305;1277;71840;-76
2022/03/05 04:39:05;;;;;;;10.90;5.20;;;;;;;-2.77;83.14;101644.10;108279;1277;72937;-75
2022/03/05 04:41:32;;;;;;;16.80;5.90;;;;;;;-2.81;83.03;101641.14;108227;1277;59518;-75
2022/03/05 04:43:58;;;;;;;11.30;5.30;;;;;;;-2.83;83.18;101639.66;108021;1277;61421;-74
2022/03/05 04:46:25;;;;;;;15.90;6.30;;;;;;;-2.85;83.17;101641.65;108317;1276;74678;-76
2022/03/05 04:48:51;;;;;;;9.70;5.20;;;;;;;-2.88;83.22;101642.09;108319;1276;71086;-74
2022/03/05 04:51:18;;;;;;;11.30;5.20;;;;;;;-2.90;83.29;101642.88;108312;1277;59125;-74
2022/03/05 04:53:45;;;;;;;13.50;6.10;;;;;;;-2.92;83.54;101644.85;108158;1277;60407;-76
2022/03/05 04:56:11;;;;;;;12.50;5.80;;;;;;;-2.94;83.68;101645.80;108242;1277;59070;-73
2022/03/05 04:58:38;;;;;;;11.80;5.30;;;;;;;-2.96;83.77;101645.73;108253;1277;59199;-74
2022/03/05 05:01:07;;;;;;;12.00;4.90;;;;;;;-2.96;83.94;101646.27;108039;1278;59153;-76
2022/03/05 05:03:34;;;;;;;10.00;4.80;;;;;;;-2.97;84.14;101648.23;108298;1277;73979;-74
2022/03/05 05:06:00;;;;;;;11.80;4.90;;;;;;;-2.99;84.02;101644.14;108250;1277;58534;-76
2022/03/05 05:08:27;;;;;;;12.40;5.10;;;;;;;-3.00;84.14;101641.95;108371;1276;59026;-76
2022/03/05 05:10:54;;;;;;;10.30;5.40;;;;;;;-3.03;84.18;101640.30;108310;1275;58939;-74
2022/03/05 05:13:20;;;;;;;9.80;5.00;;;;;;;-3.05;84.52;101643.02;108133;1279;70805;-73
2022/03/05 05:15:47;;;;;;;12.80;6.20;;;;;;;-3.08;84.58;101645.05;108319;1276;59067;-77
2022/03/05 05:18:14;;;;;;;11.30;5.50;;;;;;;-3.11;84.60;101642.38;108303;1277;60129;-74
2022/03/05 05:20:41;;;;;;;11.30;5.40;;;;;;;-3.13;84.86;101643.52;108027;1277;59168;-74
2022/03/05 05:23:07;;;;;;;10.80;5.50;;;;;;;-3.15;85.15;101643.58;108212;1277;75192;-74
2022/03/05 05:25:34;;;;;;;11.30;5.20;;;;;;;-3.17;85.67;101646.94;108275;1277;71089;-76
2022/03/05 05:28:00;;;;;;;12.90;5.60;;;;;;;-3.19;85.78;101647.39;108317;1276;59051;-74
2022/03/05 05:30:28;;;;;;;13.40;4.80;;;;;;;-3.21;85.90;101645.77;108258;1277;61416;-76
2022/03/05 05:32:54;;;;;;;12.80;5.60;;;;;;;-3.23;86.20;101647.38;108204;1277;60615;-78
2022/03/05 05:35:21;;;;;;;14.10;6.40;;;;;;;-3.25;86.37;101650.39;108289;1277;59445;-76
2022/03/05 05:37:47;;;;;;;13.10;5.30;;;;;;;-3.26;86.45;101651.48;108314;1277;59160;-74
2022/03/05 05:40:14;;;;;;;12.30;5.50;;;;;;;-3.26;86.80;101654.45;108180;1277;74146;-76
2022/03/05 05:42:41;;;;;;;17.10;6.50;;;;;;;-3.29;86.84;101652.79;108290;1277;62184;-75
2022/03/05 05:45:09;;;;;;;12.40;5.80;;;;;;;-3.30;86.89;101659.09;108339;1277;61381;-76
2022/03/05 05:47:36;;;;;;;8.30;3.50;;;;;;;-3.31;87.13;101658.09;108177;1277;76152;-77
2022/03/05 05:50:04;;;;;;;13.70;6.00;;;;;;;-3.32;87.57;101654.63;108094;1277;72436;-74
2022/03/05 05:52:31;;;;;;;12.10;5.80;;;;;;;-3.32;87.98;101653.59;108225;1277;72946;-74
2022/03/05 05:54:57;;;;;;;10.50;4.90;;;;;;;-3.30;88.54;101655.96;108259;1277;59160;-75
2022/03/05 05:57:24;;;;;;;15.10;6.00;;;;;;;-3.30;88.40;101655.77;108302;1276;59000;-75
2022/03/05 05:59:51;;;;;;;11.60;5.40;;;;;;;-3.31;88.36;101649.92;108199;1277;74950;-76
2022/03/05 06:02:17;;;;;;;12.20;5.70;;;;;;;-3.31;88.59;101653.56;108349;1277;58492;-75
2022/03/05 06:04:44;;;;;;;13.50;6.30;;;;;;;-3.30;88.49;101655.80;108175;1277;72927;-74
2022/03/05 06:07:12;;;;;;;15.40;6.50;;;;;;;-3.30;88.65;101658.89;108277;1277;63485;-76
2022/03/05 06:09:39;;;;;;;10.20;4.80;;;;;;;-3.30;88.54;101658.54;108071;1276;61724;-77
2022/03/05 06:12:10;;;;;;;11.20;6.10;;;;;;;-3.29;88.67;101663.88;108265;1277;76971;-77
2022/03/05 06:14:37;;;;;;;12.40;5.80;;;;;;;-3.28;88.77;101666.09;108289;1277;71358;-77
2022/03/05 06:17:03;;;;;;;17.60;6.60;;;;;;;-3.28;88.77;101666.24;108289;1277;59035;-74
2022/03/05 06:19:30;;;;;;;15.40;6.90;;;;;;;-3.26;88.74;101666.72;108217;1278;61930;-77
2022/03/05 06:21:56;;;;;;;16.10;6.50;;;;;;;-3.26;88.66;101670.52;107994;1280;59020;-77
2022/03/05 06:24:23;;;;;;;18.30;6.50;;;;;;;-3.24;88.84;101668.37;108252;1277;59368;-74
2022/03/05 06:26:52;;;;;;;12.40;4.90;;;;;;;-3.23;88.80;101669.20;108293;1277;73746;-76
2022/03/05 06:29:18;;;;;;;11.70;5.20;;;;;;;-3.22;88.89;101670.67;108160;1278;59187;-75
2022/03/05 06:31:44;;;;;;;13.50;6.10;;;;;;;-3.19;89.02;101665.91;107974;1279;58428;-75
2022/03/05 06:34:11;;;;;;;13.40;6.50;;;;;;;-3.17;89.07;101670.84;108199;1278;59747;-78
2022/03/05 06:36:37;;;;;;;14.30;6.30;;;;;;;-3.14;89.14;101675.21;108304;1277;58460;-77
2022/03/05 06:39:04;;;;;;;13.80;5.90;;;;;;;-3.11;89.07;101678.36;108255;1277;59092;-78
2022/03/05 06:41:31;;;;;;;11.10;5.90;;;;;;;-3.06;89.16;101680.27;107863;1279;59113;-77
2022/03/05 06:43:58;;;;;;;14.50;5.80;;;;;;;-3.02;89.13;101681.12;108247;1277;61036;-75
2022/03/05 06:46:24;;;;;;;16.70;6.60;;;;;;;-2.97;89.14;101687.14;108191;1278;61473;-78
2022/03/05 06:48:51;;;;;;;16.70;7.50;;;;;;;-2.92;89.04;101691.08;108085;1277;59071;-77
2022/03/05 06:51:17;;;;;;;15.40;7.10;;;;;;;-2.87;88.94;101695.89;108209;1278;59083;-75
2022/03/05 06:53:43;;;;;;;13.80;6.20;;;;;;;-2.81;88.91;101697.41;108258;1277;59094;-74
2022/03/05 06:56:10;;;;;;;13.40;6.30;;;;;;;-2.75;88.89;101697.85;108208;1278;59106;-77
2022/03/05 06:58:36;;;;;;;10.50;4.90;;;;;;;-2.69;88.99;101697.92;108296;1277;59474;-77
2022/03/05 07:01:06;;;;;;;12.20;5.60;;;;;;;-2.61;89.17;101709.52;108322;1277;59096;-77
2022/03/05 07:03:32;;;;;;;13.20;6.00;;;;;;;-2.53;89.02;101710.38;108275;1277;71426;-77
2022/03/05 07:05:59;;;;;;;15.80;6.20;;;;;;;-2.44;88.95;101710.57;108256;1277;59069;-78
2022/03/05 07:08:25;;;;;;;12.70;6.00;;;;;;;-2.34;89.10;101712.52;108251;1277;59167;-75
2022/03/05 07:10:52;;;;;;;12.00;5.60;;;;;;;-2.23;88.99;101712.59;108285;1277;58968;-75
2022/03/05 07:13:18;;;;;;;13.50;6.20;;;;;;;-2.13;89.02;101711.27;108274;1277;59247;-74
2022/03/05 07:15:45;;;;;;;13.20;7.00;;;;;;;-2.01;88.95;101713.32;108201;1280;58977;-77
2022/03/05 07:18:11;;;;;;;12.00;6.20;;;;;;;-1.90;88.66;101710.95;108115;1279;74330;-75
2022/03/05 07:20:38;;;;;;;14.80;5.50;;;;;;;-1.78;88.64;101718.21;108268;1277;59041;-75
2022/03/05 07:23:06;;;;;;;8.20;3.10;;;;;;;-1.67;88.52;101716.81;108278;1277;59152;-77
2022/03/05 07:25:39;;;;;;;12.00;5.00;;;;;;;-1.55;88.51;101720.58;108227;1278;75083;-77
2022/03/05 07:28:08;;;;;;;11.10;5.30;;;;;;;-1.41;88.56;101724.33;108293;1277;71374;-74
2022/03/05 07:30:37;;;;;;;4.80;2.90;;;;;;;-1.29;88.45;101723.35;108311;1277;74057;-75
2022/03/05 07:33:04;;;;;;;11.80;4.40;;;;;;;-1.16;88.27;101723.14;108265;1277;60351;-74
2022/03/05 07:35:31;;;;;;;9.60;4.50;;;;;;;-1.04;88.23;101724.78;107959;1278;60402;-78
2022/03/05 07:37:57;;;;;;;7.10;4.20;;;;;;;-0.90;88.30;101726.85;108286;1277;74955;-75
2022/03/05 07:40:24;;;;;;;5.80;3.60;;;;;;;-0.71;88.57;101728.91;107708;1278;618026;-74
2022/03/05 07:42:50;;;;;;;9.10;4.50;;;;;;;-0.56;87.95;101731.61;108148;1278;59884;-76
2022/03/05 07:45:17;;;;;;;8.30;4.10;;;;;;;-0.43;87.70;101734.58;108031;1279;59260;-74
2022/03/05 07:47:43;;;;;;;8.80;4.10;;;;;;;-0.28;87.04;101732.82;108298;1277;60570;-75
2022/03/05 07:50:10;;;;;;;10.20;4.60;;;;;;;-0.17;86.69;101738.14;108253;1277;74502;-74
2022/03/05 07:52:37;;;;;;;11.40;4.00;;;;;;;-0.04;86.46;101733.31;108123;1279;71343;-75
2022/03/05 07:55:04;;;;;;;10.30;4.60;;;;;;;0.08;85.95;101730.20;108240;1277;59159;-76
2022/03/05 07:57:32;;;;;;;8.20;4.20;;;;;;;0.20;85.69;101731.50;108315;1277;61137;-76
2022/03/05 07:59:59;;;;;;;6.10;3.70;;;;;;;0.32;85.45;101734.31;108089;1277;60385;-76
2022/03/05 08:02:45;;;;;;;9.30;4.20;;;;;;;0.46;84.87;101734.11;108345;1277;77852;-76
2022/03/05 08:05:12;;;;;;;6.30;3.50;;;;;;;0.56;84.24;101731.83;108120;1278;71494;-76
2022/03/05 08:07:39;;;;;;;9.20;4.90;;;;;;;0.65;83.73;101732.38;107920;1280;74043;-75
2022/03/05 08:10:07;;;;;;;11.10;4.70;;;;;;;0.75;83.69;101737.38;108127;1279;59259;-75
2022/03/05 08:12:35;;;;;;;11.50;5.00;;;;;;;0.85;83.21;101734.41;108319;1277;60559;-76
2022/03/05 08:15:03;;;;;;;9.30;4.30;;;;;;;0.95;83.05;101738.33;108286;1277;75927;-75
2022/03/05 08:17:30;;;;;;;6.50;3.50;;;;;;;1.04;82.55;101734.18;108346;1277;72538;-75
2022/03/05 08:19:57;;;;;;;7.80;4.10;;;;;;;1.14;82.66;101741.28;108270;1275;72953;-76
2022/03/05 08:22:24;;;;;;;10.40;5.00;;;;;;;1.23;82.07;101737.77;108240;1278;62406;-76
2022/03/05 08:24:51;;;;;;;7.60;3.20;;;;;;;1.33;82.10;101736.71;108315;1277;59257;-75
2022/03/05 08:27:18;;;;;;;10.70;4.50;;;;;;;1.42;81.63;101734.10;108344;1277;75127;-75
2022/03/05 08:29:44;;;;;;;8.10;4.10;;;;;;;1.50;81.10;101737.47;108324;1277;71488;-76
2022/03/05 08:32:12;;;;;;;11.20;4.70;;;;;;;1.59;81.18;101740.36;108325;1277;72943;-75
2022/03/05 08:34:39;;;;;;;9.10;5.00;;;;;;;1.70;80.77;101735.90;108157;1279;62256;-76
2022/03/05 08:37:05;;;;;;;8.60;4.40;;;;;;;1.79;80.66;101734.14;108134;1279;58342;-76
2022/03/05 08:39:32;;;;;;;13.00;4.40;;;;;;;1.86;80.03;101733.02;108087;1280;59067;-75
2022/03/05 08:41:58;;;;;;;8.50;3.90;;;;;;;1.95;79.97;101734.55;108226;1279;58905;-76
2022/03/05 08:44:25;;;;;;;11.70;4.70;;;;;;;2.03;79.25;101736.33;108101;1277;74356;-75
2022/03/05 08:46:51;;;;;;;9.90;4.70;;;;;;;2.14;79.38;101731.86;108322;1277;59484;-76
2022/03/05 08:49:19;;;;;;;5.90;2.80;;;;;;;2.23;78.83;101731.80;108328;1277;58937;-76
2022/03/05 08:51:45;;;;;;;12.50;5.70;;;;;;;2.33;78.46;101736.27;108313;1277;75935;-75
2022/03/05 08:54:12;;;;;;;10.20;4.30;;;;;;;2.40;77.92;101736.30;107962;1277;59143;-76
2022/03/05 08:56:39;;;;;;;8.80;4.40;;;;;;;2.48;77.77;101735.14;108217;1278;72977;-75
2022/03/05 08:59:05;;;;;;;10.90;5.40;;;;;;;2.55;76.67;101728.23;108163;1278;61146;-76
2022/03/05 09:01:32;;;;;;;8.80;4.70;;;;;;;2.54;75.23;101730.38;108355;1276;58916;-75
2022/03/05 09:03:58;;;;;;;8.30;4.00;;;;;;;2.59;75.55;101724.64;108345;1277;75951;-75
2022/03/05 09:06:25;;;;;;;5.70;3.00;;;;;;;2.67;75.45;101721.16;108135;1279;59154;-75
2022/03/05 09:08:52;;;;;;;8.80;4.00;;;;;;;2.75;75.29;101724.35;108128;1278;59079;-75
2022/03/05 09:11:18;;;;;;;8.30;4.70;;;;;;;2.83;74.88;101719.79;108161;1278;61553;-75
2022/03/05 09:13:45;;;;;;;9.90;4.40;;;;;;;2.95;74.87;101718.36;108354;1277;59127;-75
2022/03/05 09:16:11;;;;;;;10.40;3.30;;;;;;;3.08;75.29;101721.00;108299;1277;58424;-74
2022/03/05 09:18:38;;;;;;;8.80;3.90;;;;;;;3.23;74.94;101718.03;108338;1277;59150;-74
2022/03/05 09:21:04;;;;;;;7.80;3.70;;;;;;;3.37;73.60;101721.38;108306;1277;59035;-74
2022/03/05 09:23:32;;;;;;;7.10;3.00;;;;;;;3.45;72.77;101716.59;108225;1278;62484;-74
2022/03/05 09:25:59;;;;;;;8.40;3.80;;;;;;;3.50;71.96;101719.41;108122;1280;60801;-74
2022/03/05 09:28:25;;;;;;;11.70;4.60;;;;;;;3.58;72.33;101719.73;108231;1278;76086;-75
2022/03/05 09:30:52;;;;;;;6.10;3.10;;;;;;;3.68;71.91;101723.27;108152;1279;70386;-74
2022/03/05 09:33:22;;;;;;;6.10;3.20;;;;;;;3.75;70.09;101719.48;108131;1277;72990;-74
2022/03/05 09:35:50;;;;;;;7.90;3.40;;;;;;;3.78;68.88;101718.03;108324;1277;59820;-74
2022/03/05 09:38:17;;;;;;;8.40;4.10;;;;;;;3.83;68.06;101718.94;108128;1280;61336;-74
2022/03/05 09:40:44;;;;;;;7.80;3.20;;;;;;;3.88;67.57;101719.64;108167;1279;75942;-74
2022/03/05 09:43:11;;;;;;;8.20;3.10;;;;;;;3.94;67.15;101713.80;108168;1277;72465;-75
2022/03/05 09:45:38;;;;;;;4.80;2.60;;;;;;;4.00;66.65;101712.31;108319;1277;72483;-75
2022/03/05 09:48:06;;;;;;;7.10;3.60;;;;;;;4.03;66.16;101713.33;108153;1278;59501;-74
2022/03/05 09:50:32;;;;;;;6.90;3.20;;;;;;;4.06;66.52;101712.22;108330;1277;59615;-75
2022/03/05 09:53:00;;;;;;;8.50;4.00;;;;;;;4.08;65.75;101712.27;108151;1279;59207;-75
2022/03/05 09:55:27;;;;;;;7.20;3.50;;;;;;;4.13;65.77;101709.85;108334;1277;71474;-74
2022/03/05 09:57:54;;;;;;;7.80;3.90;;;;;;;4.23;66.25;101707.17;108224;1277;74015;-75
2022/03/05 10:00:21;;;;;;;7.50;3.50;;;;;;;4.34;65.88;101707.61;108099;1277;59131;-75
2022/03/05 10:02:48;;;;;;;7.10;3.30;;;;;;;4.42;65.14;101703.89;108387;1277;60350;-75
2022/03/05 10:05:21;;;;;;;7.80;3.60;;;;;;;4.47;64.80;101707.23;108309;1277;75754;-75
2022/03/05 10:08:11;;;;;;;7.90;3.60;;;;;;;4.56;64.92;101708.02;108243;1278;71123;-75
2022/03/05 10:10:54;;;;;;;7.20;3.50;;;;;;;4.67;64.96;101708.79;108139;1278;74144;-75
2022/03/05 10:13:25;;;;;;;4.20;2.70;;;;;;;4.77;64.15;101709.33;108299;1277;60549;-75
2022/03/05 10:15:59;;;;;;;5.60;3.60;;;;;;;4.82;62.98;101702.45;108338;1277;60755;-75
2022/03/05 10:18:30;;;;;;;7.40;3.20;;;;;;;4.92;63.46;101703.61;108192;1277;75756;-75
2022/03/05 10:20:59;;;;;;;8.00;3.80;;;;;;;5.01;61.68;101698.27;108076;1279;71490;-74
2022/03/05 10:23:26;;;;;;;5.10;3.00;;;;;;;5.01;60.64;101699.10;108124;1277;72902;-75
2022/03/05 10:25:54;;;;;;;10.10;3.50;;;;;;;5.03;60.92;101698.57;108327;1277;59048;-75
2022/03/05 10:28:26;;;;;;;4.10;2.70;;;;;;;5.09;61.17;101693.39;108300;1277;60652;-75
2022/03/05 10:30:54;;;;;;;6.50;3.80;;;;;;;5.15;60.29;101693.35;108049;1278;76219;-74
2022/03/05 10:33:32;;;;;;;8.80;3.70;;;;;;;5.23;60.59;101692.02;108203;1277;71258;-75
2022/03/05 10:36:19;;;;;;;6.80;2.90;;;;;;;5.33;59.67;101695.50;108065;1278;74159;-75
2022/03/05 10:38:46;;;;;;;6.90;3.20;;;;;;;5.34;58.92;101693.34;108299;1277;59772;-74
2022/03/05 10:41:19;;;;;;;5.40;2.90;;;;;;;5.34;59.03;101690.66;108133;1279;60577;-74
2022/03/05 10:43:49;;;;;;;8.00;3.30;;;;;;;5.41;59.70;101691.06;108311;1277;75011;-75
2022/03/05 10:46:16;;;;;;;4.50;3.00;;;;;;;5.48;59.75;101693.27;108140;1279;71218;-74
2022/03/05 10:48:46;;;;;;;8.20;2.70;;;;;;;5.59;59.14;101694.04;108311;1277;74044;-74
2022/03/05 10:51:16;;;;;;;6.50;3.70;;;;;;;5.65;57.46;101693.39;108002;1277;59607;-74
2022/03/05 10:53:48;;;;;;;5.10;3.00;;;;;;;5.67;57.16;101692.85;108179;1277;61056;-73
2022/03/05 10:56:29;;;;;;;5.80;2.40;;;;;;;5.70;57.64;101691.73;108162;1277;74910;-74
2022/03/05 10:59:16;;;;;;;8.90;3.30;;;;;;;5.64;57.74;101689.40;108309;1277;71658;-73
2022/03/05 11:01:43;;;;;;;7.40;3.20;;;;;;;5.75;58.63;101687.90;108196;1277;74063;-74
2022/03/05 11:04:11;;;;;;;9.20;3.90;;;;;;;5.90;57.32;101684.24;108204;1277;59522;-73
2022/03/05 11:06:40;;;;;;;8.30;4.30;;;;;;;5.97;56.25;101686.23;108130;1277;61374;-74
2022/03/05 11:09:12;;;;;;;6.60;3.70;;;;;;;5.98;55.43;101684.88;108098;1278;76151;-74
2022/03/05 11:11:43;;;;;;;7.10;3.60;;;;;;;6.06;55.51;101682.16;108311;1276;72713;-74
2022/03/05 11:14:14;;;;;;;6.60;3.20;;;;;;;6.10;54.62;101682.69;108224;1277;74164;-74
2022/03/05 11:16:42;;;;;;;7.50;3.00;;;;;;;6.15;53.71;101680.19;108134;1277;59498;-74
2022/03/05 11:19:08;;;;;;;5.80;2.70;;;;;;;6.41;54.96;101676.57;108294;1277;60597;-74